sensor_id;sensor_type;location;lat;lon;timestamp;P1;durP1;ratioP1;P2;durP2;ratioP2
1765;SDS011;880;52.452;8.656;2022-07-06T00:00:56;3.73;;;2.20;;
1765;SDS011;880;52.452;8.656;2022-07-06T00:03:23;4.60;;;2.43;;
1765;SDS011;880;52.452;8.656;2022-07-06T00:05:50;2.80;;;2.13;;
1765;SDS011;880;52.452;8.656;2022-07-06T00:08:17;2.53;;;2.33;;
1765;SDS011;880;52.452;8.656;2022-07-06T00:10:45;5.87;;;2.37;;
1765;SDS011;880;52.452;8.656;2022-07-06T00:13:12;3.37;;;2.30;;
1765;SDS011;880;52.452;8.656;2022-07-06T00:15:39;2.77;;;2.20;;
1765;SDS011;880;52.452;8.656;2022-07-06T00:18:06;2.80;;;2.10;;
1765;SDS011;880;52.452;8.656;2022-07-06T00:20:33;3.80;;;2.20;;
1765;SDS011;880;52.452;8.656;2022-07-06T00:23:00;2.30;;;2.20;;
1765;SDS011;880;52.452;8.656;2022-07-06T00:25:27;4.10;;;2.57;;
1765;SDS011;880;52.452;8.656;2022-07-06T00:27:54;4.70;;;2.40;;
1765;SDS011;880;52.452;8.656;2022-07-06T00:30:21;4.20;;;2.10;;
1765;SDS011;880;52.452;8.656;2022-07-06T00:32:48;3.40;;;2.07;;
1765;SDS011;880;52.452;8.656;2022-07-06T00:35:15;2.60;;;2.40;;
1765;SDS011;880;52.452;8.656;2022-07-06T00:37:42;3.50;;;2.00;;
1765;SDS011;880;52.452;8.656;2022-07-06T00:40:09;2.93;;;2.13;;
1765;SDS011;880;52.452;8.656;2022-07-06T00:42:40;4.20;;;2.27;;
1765;SDS011;880;52.452;8.656;2022-07-06T00:45:13;2.67;;;2.40;;
1765;SDS011;880;52.452;8.656;2022-07-06T00:47:41;2.70;;;2.37;;
1765;SDS011;880;52.452;8.656;2022-07-06T00:50:09;2.37;;;2.27;;
1765;SDS011;880;52.452;8.656;2022-07-06T00:52:49;3.93;;;2.73;;
1765;SDS011;880;52.452;8.656;2022-07-06T00:55:19;2.40;;;2.00;;
1765;SDS011;880;52.452;8.656;2022-07-06T00:57:52;3.10;;;2.50;;
1765;SDS011;880;52.452;8.656;2022-07-06T01:00:21;3.53;;;2.57;;
1765;SDS011;880;52.452;8.656;2022-07-06T01:02:52;3.30;;;2.30;;
1765;SDS011;880;52.452;8.656;2022-07-06T01:05:19;3.33;;;2.53;;
1765;SDS011;880;52.452;8.656;2022-07-06T01:07:47;2.87;;;2.50;;
1765;SDS011;880;52.452;8.656;2022-07-06T01:10:17;2.40;;;2.20;;
1765;SDS011;880;52.452;8.656;2022-07-06T01:12:46;2.87;;;2.50;;
1765;SDS011;880;52.452;8.656;2022-07-06T01:15:19;5.43;;;2.70;;
1765;SDS011;880;52.452;8.656;2022-07-06T01:17:50;2.93;;;2.63;;
1765;SDS011;880;52.452;8.656;2022-07-06T01:20:22;3.40;;;2.30;;
1765;SDS011;880;52.452;8.656;2022-07-06T01:22:52;4.37;;;2.53;;
1765;SDS011;880;52.452;8.656;2022-07-06T01:25:22;3.50;;;2.80;;
1765;SDS011;880;52.452;8.656;2022-07-06T01:27:49;2.97;;;2.67;;
1765;SDS011;880;52.452;8.656;2022-07-06T01:30:17;2.70;;;2.47;;
1765;SDS011;880;52.452;8.656;2022-07-06T01:32:45;4.50;;;2.50;;
1765;SDS011;880;52.452;8.656;2022-07-06T01:35:14;4.20;;;2.57;;
1765;SDS011;880;52.452;8.656;2022-07-06T01:37:42;3.53;;;3.13;;
1765;SDS011;880;52.452;8.656;2022-07-06T01:40:11;4.63;;;2.40;;
1765;SDS011;880;52.452;8.656;2022-07-06T01:42:39;3.10;;;2.40;;
1765;SDS011;880;52.452;8.656;2022-07-06T01:45:07;2.67;;;2.47;;
1765;SDS011;880;52.452;8.656;2022-07-06T01:47:36;4.80;;;2.43;;
1765;SDS011;880;52.452;8.656;2022-07-06T01:50:04;4.83;;;2.70;;
1765;SDS011;880;52.452;8.656;2022-07-06T01:52:37;3.60;;;2.80;;
1765;SDS011;880;52.452;8.656;2022-07-06T01:55:04;4.40;;;2.57;;
1765;SDS011;880;52.452;8.656;2022-07-06T01:57:33;2.73;;;2.53;;
1765;SDS011;880;52.452;8.656;2022-07-06T02:00:00;2.60;;;2.40;;
1765;SDS011;880;52.452;8.656;2022-07-06T02:02:37;2.77;;;2.50;;
1765;SDS011;880;52.452;8.656;2022-07-06T02:05:06;3.40;;;2.50;;
1765;SDS011;880;52.452;8.656;2022-07-06T02:07:34;3.67;;;2.10;;
1765;SDS011;880;52.452;8.656;2022-07-06T02:10:02;3.00;;;2.80;;
1765;SDS011;880;52.452;8.656;2022-07-06T02:12:29;3.53;;;2.70;;
1765;SDS011;880;52.452;8.656;2022-07-06T02:14:56;3.60;;;2.77;;
1765;SDS011;880;52.452;8.656;2022-07-06T02:17:23;3.90;;;2.70;;
1765;SDS011;880;52.452;8.656;2022-07-06T02:19:50;8.90;;;2.70;;
1765;SDS011;880;52.452;8.656;2022-07-06T02:22:17;2.83;;;2.47;;
1765;SDS011;880;52.452;8.656;2022-07-06T02:24:44;10.17;;;2.93;;
1765;SDS011;880;52.452;8.656;2022-07-06T02:27:11;3.23;;;2.20;;
1765;SDS011;880;52.452;8.656;2022-07-06T02:29:39;3.03;;;2.30;;
1765;SDS011;880;52.452;8.656;2022-07-06T02:32:07;2.47;;;2.27;;
1765;SDS011;880;52.452;8.656;2022-07-06T02:34:34;3.63;;;2.13;;
1765;SDS011;880;52.452;8.656;2022-07-06T02:37:02;3.80;;;2.20;;
1765;SDS011;880;52.452;8.656;2022-07-06T02:39:29;5.33;;;2.20;;
1765;SDS011;880;52.452;8.656;2022-07-06T02:41:56;2.67;;;2.40;;
1765;SDS011;880;52.452;8.656;2022-07-06T02:44:24;6.00;;;2.17;;
1765;SDS011;880;52.452;8.656;2022-07-06T02:46:52;5.17;;;3.43;;
1765;SDS011;880;52.452;8.656;2022-07-06T02:49:19;6.30;;;2.10;;
1765;SDS011;880;52.452;8.656;2022-07-06T02:51:47;3.23;;;2.20;;
1765;SDS011;880;52.452;8.656;2022-07-06T02:54:14;5.30;;;2.40;;
1765;SDS011;880;52.452;8.656;2022-07-06T02:56:42;3.33;;;2.20;;
1765;SDS011;880;52.452;8.656;2022-07-06T02:59:11;3.73;;;2.80;;
1765;SDS011;880;52.452;8.656;2022-07-06T03:01:41;2.50;;;2.40;;
1765;SDS011;880;52.452;8.656;2022-07-06T03:04:08;4.70;;;2.57;;
1765;SDS011;880;52.452;8.656;2022-07-06T03:06:35;2.77;;;2.50;;
1765;SDS011;880;52.452;8.656;2022-07-06T03:09:02;4.80;;;2.77;;
1765;SDS011;880;52.452;8.656;2022-07-06T03:11:29;3.47;;;2.57;;
1765;SDS011;880;52.452;8.656;2022-07-06T03:13:57;3.70;;;2.50;;
1765;SDS011;880;52.452;8.656;2022-07-06T03:16:25;4.90;;;2.40;;
1765;SDS011;880;52.452;8.656;2022-07-06T03:18:52;8.87;;;2.40;;
1765;SDS011;880;52.452;8.656;2022-07-06T03:21:19;5.27;;;2.47;;
1765;SDS011;880;52.452;8.656;2022-07-06T03:23:46;5.03;;;2.80;;
1765;SDS011;880;52.452;8.656;2022-07-06T03:26:13;2.80;;;2.10;;
1765;SDS011;880;52.452;8.656;2022-07-06T03:28:41;5.67;;;2.50;;
1765;SDS011;880;52.452;8.656;2022-07-06T03:31:09;3.83;;;2.47;;
1765;SDS011;880;52.452;8.656;2022-07-06T03:33:37;2.63;;;2.30;;
1765;SDS011;880;52.452;8.656;2022-07-06T03:36:04;2.90;;;2.37;;
1765;SDS011;880;52.452;8.656;2022-07-06T03:38:34;4.13;;;2.77;;
1765;SDS011;880;52.452;8.656;2022-07-06T03:41:02;4.43;;;2.93;;
1765;SDS011;880;52.452;8.656;2022-07-06T03:43:29;3.70;;;2.60;;
1765;SDS011;880;52.452;8.656;2022-07-06T03:45:57;4.03;;;2.30;;
1765;SDS011;880;52.452;8.656;2022-07-06T03:48:25;3.10;;;2.70;;
1765;SDS011;880;52.452;8.656;2022-07-06T03:50:54;5.93;;;2.80;;
1765;SDS011;880;52.452;8.656;2022-07-06T03:53:21;4.33;;;2.83;;
1765;SDS011;880;52.452;8.656;2022-07-06T03:55:49;5.23;;;2.80;;
1765;SDS011;880;52.452;8.656;2022-07-06T03:58:35;3.53;;;2.80;;
1765;SDS011;880;52.452;8.656;2022-07-06T04:01:02;5.00;;;2.80;;
1765;SDS011;880;52.452;8.656;2022-07-06T04:03:29;4.33;;;3.40;;
1765;SDS011;880;52.452;8.656;2022-07-06T04:06:00;4.77;;;3.03;;
1765;SDS011;880;52.452;8.656;2022-07-06T04:08:28;3.27;;;2.97;;
1765;SDS011;880;52.452;8.656;2022-07-06T04:10:57;4.57;;;4.10;;
1765;SDS011;880;52.452;8.656;2022-07-06T04:13:24;2.93;;;2.63;;
1765;SDS011;880;52.452;8.656;2022-07-06T04:15:52;3.03;;;2.73;;
1765;SDS011;880;52.452;8.656;2022-07-06T04:18:19;4.87;;;3.00;;
1765;SDS011;880;52.452;8.656;2022-07-06T04:20:52;6.63;;;2.90;;
1765;SDS011;880;52.452;8.656;2022-07-06T04:23:19;3.43;;;3.17;;
1765;SDS011;880;52.452;8.656;2022-07-06T04:25:46;3.70;;;3.30;;
1765;SDS011;880;52.452;8.656;2022-07-06T04:28:14;3.60;;;3.23;;
1765;SDS011;880;52.452;8.656;2022-07-06T04:30:41;3.63;;;3.20;;
1765;SDS011;880;52.452;8.656;2022-07-06T04:33:12;4.10;;;3.27;;
1765;SDS011;880;52.452;8.656;2022-07-06T04:35:41;7.27;;;3.20;;
1765;SDS011;880;52.452;8.656;2022-07-06T04:38:09;4.35;;;3.33;;
1765;SDS011;880;52.452;8.656;2022-07-06T04:40:36;5.53;;;3.30;;
1765;SDS011;880;52.452;8.656;2022-07-06T04:43:07;5.57;;;3.40;;
1765;SDS011;880;52.452;8.656;2022-07-06T04:45:34;6.33;;;3.77;;
1765;SDS011;880;52.452;8.656;2022-07-06T04:48:02;6.13;;;3.27;;
1765;SDS011;880;52.452;8.656;2022-07-06T04:50:30;5.20;;;4.00;;
1765;SDS011;880;52.452;8.656;2022-07-06T04:53:08;3.40;;;3.20;;
1765;SDS011;880;52.452;8.656;2022-07-06T04:55:36;4.60;;;3.30;;
1765;SDS011;880;52.452;8.656;2022-07-06T04:58:03;3.83;;;3.00;;
1765;SDS011;880;52.452;8.656;2022-07-06T05:00:30;4.87;;;3.17;;
1765;SDS011;880;52.452;8.656;2022-07-06T05:02:58;5.40;;;3.80;;
1765;SDS011;880;52.452;8.656;2022-07-06T05:05:26;3.00;;;2.80;;
1765;SDS011;880;52.452;8.656;2022-07-06T05:07:53;8.37;;;3.53;;
1765;SDS011;880;52.452;8.656;2022-07-06T05:10:20;4.60;;;3.20;;
1765;SDS011;880;52.452;8.656;2022-07-06T05:12:51;5.10;;;3.13;;
1765;SDS011;880;52.452;8.656;2022-07-06T05:15:18;3.77;;;2.73;;
1765;SDS011;880;52.452;8.656;2022-07-06T05:17:45;6.63;;;2.87;;
1765;SDS011;880;52.452;8.656;2022-07-06T05:20:13;6.10;;;3.10;;
1765;SDS011;880;52.452;8.656;2022-07-06T05:22:43;5.47;;;3.30;;
1765;SDS011;880;52.452;8.656;2022-07-06T05:25:14;5.23;;;3.13;;
1765;SDS011;880;52.452;8.656;2022-07-06T05:27:42;4.30;;;2.80;;
1765;SDS011;880;52.452;8.656;2022-07-06T05:30:09;5.13;;;3.03;;
1765;SDS011;880;52.452;8.656;2022-07-06T05:32:37;3.60;;;3.30;;
1765;SDS011;880;52.452;8.656;2022-07-06T05:35:04;3.60;;;2.47;;
1765;SDS011;880;52.452;8.656;2022-07-06T05:37:53;3.20;;;2.50;;
1765;SDS011;880;52.452;8.656;2022-07-06T05:40:20;3.07;;;2.87;;
1765;SDS011;880;52.452;8.656;2022-07-06T05:42:48;4.87;;;2.73;;
1765;SDS011;880;52.452;8.656;2022-07-06T05:45:15;3.23;;;2.93;;
1765;SDS011;880;52.452;8.656;2022-07-06T05:47:42;5.87;;;2.73;;
1765;SDS011;880;52.452;8.656;2022-07-06T05:50:30;3.90;;;3.10;;
1765;SDS011;880;52.452;8.656;2022-07-06T05:52:58;3.13;;;2.50;;
1765;SDS011;880;52.452;8.656;2022-07-06T05:55:38;2.67;;;2.00;;
1765;SDS011;880;52.452;8.656;2022-07-06T05:58:05;2.43;;;2.33;;
1765;SDS011;880;52.452;8.656;2022-07-06T06:00:33;7.13;;;2.70;;
1765;SDS011;880;52.452;8.656;2022-07-06T06:03:07;3.10;;;2.40;;
1765;SDS011;880;52.452;8.656;2022-07-06T06:05:34;3.00;;;2.40;;
1765;SDS011;880;52.452;8.656;2022-07-06T06:08:04;3.73;;;2.23;;
1765;SDS011;880;52.452;8.656;2022-07-06T06:10:32;2.00;;;1.90;;
1765;SDS011;880;52.452;8.656;2022-07-06T06:13:02;2.83;;;2.47;;
1765;SDS011;880;52.452;8.656;2022-07-06T06:15:30;2.93;;;2.23;;
1765;SDS011;880;52.452;8.656;2022-07-06T06:17:58;4.00;;;2.63;;
1765;SDS011;880;52.452;8.656;2022-07-06T06:20:25;4.80;;;2.20;;
1765;SDS011;880;52.452;8.656;2022-07-06T06:22:55;2.67;;;1.77;;
1765;SDS011;880;52.452;8.656;2022-07-06T06:25:30;7.90;;;2.50;;
1765;SDS011;880;52.452;8.656;2022-07-06T06:27:59;2.23;;;1.93;;
1765;SDS011;880;52.452;8.656;2022-07-06T06:30:26;2.80;;;2.00;;
1765;SDS011;880;52.452;8.656;2022-07-06T06:33:04;6.47;;;3.17;;
1765;SDS011;880;52.452;8.656;2022-07-06T06:35:35;2.33;;;2.13;;
1765;SDS011;880;52.452;8.656;2022-07-06T06:38:02;5.20;;;2.80;;
1765;SDS011;880;52.452;8.656;2022-07-06T06:40:29;2.57;;;2.20;;
1765;SDS011;880;52.452;8.656;2022-07-06T06:42:56;7.13;;;3.00;;
1765;SDS011;880;52.452;8.656;2022-07-06T06:45:24;2.97;;;2.67;;
1765;SDS011;880;52.452;8.656;2022-07-06T06:47:51;3.93;;;2.10;;
1765;SDS011;880;52.452;8.656;2022-07-06T06:50:18;5.50;;;2.87;;
1765;SDS011;880;52.452;8.656;2022-07-06T06:52:45;2.50;;;1.40;;
1765;SDS011;880;52.452;8.656;2022-07-06T06:55:12;4.80;;;2.60;;
1765;SDS011;880;52.452;8.656;2022-07-06T06:57:39;2.90;;;2.70;;
1765;SDS011;880;52.452;8.656;2022-07-06T07:00:06;3.70;;;2.60;;
1765;SDS011;880;52.452;8.656;2022-07-06T07:02:34;6.07;;;3.93;;
1765;SDS011;880;52.452;8.656;2022-07-06T07:05:02;3.40;;;2.97;;
1765;SDS011;880;52.452;8.656;2022-07-06T07:07:29;2.60;;;2.40;;
1765;SDS011;880;52.452;8.656;2022-07-06T07:09:56;4.10;;;2.57;;
1765;SDS011;880;52.452;8.656;2022-07-06T07:12:23;4.20;;;2.60;;
1765;SDS011;880;52.452;8.656;2022-07-06T07:14:51;2.27;;;2.10;;
1765;SDS011;880;52.452;8.656;2022-07-06T07:17:17;5.00;;;2.43;;
1765;SDS011;880;52.452;8.656;2022-07-06T07:19:44;2.67;;;2.47;;
1765;SDS011;880;52.452;8.656;2022-07-06T07:22:11;4.93;;;2.10;;
1765;SDS011;880;52.452;8.656;2022-07-06T07:24:38;3.87;;;2.10;;
1765;SDS011;880;52.452;8.656;2022-07-06T07:27:06;5.60;;;2.17;;
1765;SDS011;880;52.452;8.656;2022-07-06T07:29:33;2.40;;;1.53;;
1765;SDS011;880;52.452;8.656;2022-07-06T07:32:00;2.70;;;1.53;;
1765;SDS011;880;52.452;8.656;2022-07-06T07:34:27;5.23;;;2.07;;
1765;SDS011;880;52.452;8.656;2022-07-06T07:36:54;1.53;;;1.37;;
1765;SDS011;880;52.452;8.656;2022-07-06T07:39:21;1.77;;;1.30;;
1765;SDS011;880;52.452;8.656;2022-07-06T07:41:48;2.20;;;1.40;;
1765;SDS011;880;52.452;8.656;2022-07-06T07:44:16;4.60;;;1.60;;
1765;SDS011;880;52.452;8.656;2022-07-06T07:46:43;1.87;;;1.40;;
1765;SDS011;880;52.452;8.656;2022-07-06T07:49:11;3.00;;;1.60;;
1765;SDS011;880;52.452;8.656;2022-07-06T07:51:46;3.00;;;1.50;;
1765;SDS011;880;52.452;8.656;2022-07-06T07:54:16;1.30;;;1.20;;
1765;SDS011;880;52.452;8.656;2022-07-06T07:56:43;1.77;;;1.23;;
1765;SDS011;880;52.452;8.656;2022-07-06T07:59:10;4.37;;;0.90;;
1765;SDS011;880;52.452;8.656;2022-07-06T08:01:39;3.67;;;1.63;;
1765;SDS011;880;52.452;8.656;2022-07-06T08:04:06;2.60;;;1.83;;
1765;SDS011;880;52.452;8.656;2022-07-06T08:06:33;1.30;;;1.20;;
1765;SDS011;880;52.452;8.656;2022-07-06T08:09:00;1.20;;;1.10;;
1765;SDS011;880;52.452;8.656;2022-07-06T08:11:29;2.27;;;1.10;;
1765;SDS011;880;52.452;8.656;2022-07-06T08:13:56;4.27;;;1.03;;
1765;SDS011;880;52.452;8.656;2022-07-06T08:16:23;1.20;;;0.90;;
1765;SDS011;880;52.452;8.656;2022-07-06T08:18:50;3.43;;;1.00;;
1765;SDS011;880;52.452;8.656;2022-07-06T08:21:17;2.87;;;1.00;;
1765;SDS011;880;52.452;8.656;2022-07-06T08:23:51;4.77;;;1.23;;
1765;SDS011;880;52.452;8.656;2022-07-06T08:26:20;1.23;;;0.80;;
1765;SDS011;880;52.452;8.656;2022-07-06T08:28:47;3.27;;;0.80;;
1765;SDS011;880;52.452;8.656;2022-07-06T08:31:14;1.77;;;0.80;;
1765;SDS011;880;52.452;8.656;2022-07-06T08:34:01;0.80;;;0.80;;
1765;SDS011;880;52.452;8.656;2022-07-06T08:36:29;2.70;;;1.00;;
1765;SDS011;880;52.452;8.656;2022-07-06T08:38:56;2.40;;;0.80;;
1765;SDS011;880;52.452;8.656;2022-07-06T08:41:24;1.27;;;0.70;;
1765;SDS011;880;52.452;8.656;2022-07-06T08:43:52;0.90;;;0.70;;
1765;SDS011;880;52.452;8.656;2022-07-06T08:46:20;1.00;;;0.73;;
1765;SDS011;880;52.452;8.656;2022-07-06T08:48:48;1.00;;;0.87;;
1765;SDS011;880;52.452;8.656;2022-07-06T08:51:17;3.17;;;0.70;;
1765;SDS011;880;52.452;8.656;2022-07-06T08:53:55;1.53;;;0.70;;
1765;SDS011;880;52.452;8.656;2022-07-06T08:56:23;2.00;;;0.70;;
1765;SDS011;880;52.452;8.656;2022-07-06T08:58:51;0.60;;;0.60;;
1765;SDS011;880;52.452;8.656;2022-07-06T09:01:20;0.97;;;0.63;;
1765;SDS011;880;52.452;8.656;2022-07-06T09:03:48;1.03;;;0.73;;
1765;SDS011;880;52.452;8.656;2022-07-06T09:06:17;1.07;;;0.97;;
1765;SDS011;880;52.452;8.656;2022-07-06T09:08:54;1.27;;;0.80;;
1765;SDS011;880;52.452;8.656;2022-07-06T09:11:23;0.93;;;0.70;;
1765;SDS011;880;52.452;8.656;2022-07-06T09:13:51;4.47;;;1.03;;
1765;SDS011;880;52.452;8.656;2022-07-06T09:16:24;1.00;;;0.77;;
1765;SDS011;880;52.452;8.656;2022-07-06T09:19:04;2.33;;;0.90;;
1765;SDS011;880;52.452;8.656;2022-07-06T09:21:37;1.20;;;1.00;;
1765;SDS011;880;52.452;8.656;2022-07-06T09:24:06;1.40;;;1.30;;
1765;SDS011;880;52.452;8.656;2022-07-06T09:26:37;1.70;;;0.80;;
1765;SDS011;880;52.452;8.656;2022-07-06T09:29:07;5.33;;;1.30;;
1765;SDS011;880;52.452;8.656;2022-07-06T09:31:34;1.10;;;0.97;;
1765;SDS011;880;52.452;8.656;2022-07-06T09:34:06;1.40;;;1.00;;
1765;SDS011;880;52.452;8.656;2022-07-06T09:36:37;0.93;;;0.90;;
1765;SDS011;880;52.452;8.656;2022-07-06T09:41:59;2.20;;;1.00;;
1765;SDS011;880;52.452;8.656;2022-07-06T09:44:34;1.00;;;0.90;;
1765;SDS011;880;52.452;8.656;2022-07-06T09:47:05;1.80;;;0.90;;
1765;SDS011;880;52.452;8.656;2022-07-06T09:49:37;2.07;;;0.90;;
1765;SDS011;880;52.452;8.656;2022-07-06T09:52:08;1.90;;;0.93;;
1765;SDS011;880;52.452;8.656;2022-07-06T09:54:37;1.63;;;0.80;;
1765;SDS011;880;52.452;8.656;2022-07-06T09:57:05;2.20;;;0.90;;
1765;SDS011;880;52.452;8.656;2022-07-06T09:59:35;2.50;;;0.83;;
1765;SDS011;880;52.452;8.656;2022-07-06T10:02:04;3.90;;;1.10;;
1765;SDS011;880;52.452;8.656;2022-07-06T10:04:34;1.47;;;0.90;;
1765;SDS011;880;52.452;8.656;2022-07-06T10:07:01;1.90;;;0.70;;
1765;SDS011;880;52.452;8.656;2022-07-06T10:09:29;1.73;;;1.10;;
1765;SDS011;880;52.452;8.656;2022-07-06T10:12:00;2.57;;;0.80;;
1765;SDS011;880;52.452;8.656;2022-07-06T10:14:29;6.20;;;1.00;;
1765;SDS011;880;52.452;8.656;2022-07-06T10:17:00;2.40;;;1.13;;
1765;SDS011;880;52.452;8.656;2022-07-06T10:19:30;1.93;;;0.77;;
1765;SDS011;880;52.452;8.656;2022-07-06T10:21:59;2.00;;;1.00;;
1765;SDS011;880;52.452;8.656;2022-07-06T10:24:29;1.00;;;0.90;;
1765;SDS011;880;52.452;8.656;2022-07-06T10:26:56;1.90;;;0.97;;
1765;SDS011;880;52.452;8.656;2022-07-06T10:29:24;1.47;;;1.03;;
1765;SDS011;880;52.452;8.656;2022-07-06T10:31:52;0.80;;;0.80;;
1765;SDS011;880;52.452;8.656;2022-07-06T10:34:20;2.23;;;0.70;;
1765;SDS011;880;52.452;8.656;2022-07-06T10:36:48;2.33;;;0.70;;
1765;SDS011;880;52.452;8.656;2022-07-06T10:39:34;0.77;;;0.57;;
1765;SDS011;880;52.452;8.656;2022-07-06T10:50:39;2.13;;;0.80;;
1765;SDS011;880;52.452;8.656;2022-07-06T10:53:26;1.60;;;0.80;;
1765;SDS011;880;52.452;8.656;2022-07-06T10:55:56;2.10;;;0.90;;
1765;SDS011;880;52.452;8.656;2022-07-06T11:01:12;2.33;;;1.37;;
1765;SDS011;880;52.452;8.656;2022-07-06T11:03:41;1.30;;;1.10;;
1765;SDS011;880;52.452;8.656;2022-07-06T11:06:25;0.97;;;0.80;;
1765;SDS011;880;52.452;8.656;2022-07-06T11:08:56;0.70;;;0.70;;
1765;SDS011;880;52.452;8.656;2022-07-06T11:11:25;1.27;;;0.87;;
1765;SDS011;880;52.452;8.656;2022-07-06T11:14:04;0.90;;;0.80;;
1765;SDS011;880;52.452;8.656;2022-07-06T11:16:36;1.87;;;0.80;;
1765;SDS011;880;52.452;8.656;2022-07-06T11:24:15;2.03;;;1.00;;
1765;SDS011;880;52.452;8.656;2022-07-06T11:26:43;2.27;;;1.00;;
1765;SDS011;880;52.452;8.656;2022-07-06T11:29:15;2.40;;;0.90;;
1765;SDS011;880;52.452;8.656;2022-07-06T11:31:44;1.03;;;0.80;;
1765;SDS011;880;52.452;8.656;2022-07-06T11:34:17;1.83;;;0.70;;
1765;SDS011;880;52.452;8.656;2022-07-06T11:36:49;0.87;;;0.60;;
1765;SDS011;880;52.452;8.656;2022-07-06T11:39:28;1.90;;;0.80;;
1765;SDS011;880;52.452;8.656;2022-07-06T11:41:57;2.50;;;0.90;;
1765;SDS011;880;52.452;8.656;2022-07-06T11:44:26;3.80;;;1.00;;
1765;SDS011;880;52.452;8.656;2022-07-06T11:46:54;2.40;;;0.70;;
1765;SDS011;880;52.452;8.656;2022-07-06T11:49:22;2.80;;;0.80;;
1765;SDS011;880;52.452;8.656;2022-07-06T11:51:50;1.17;;;0.70;;
1765;SDS011;880;52.452;8.656;2022-07-06T11:54:17;1.07;;;0.70;;
1765;SDS011;880;52.452;8.656;2022-07-06T11:56:47;3.60;;;0.67;;
1765;SDS011;880;52.452;8.656;2022-07-06T11:59:22;2.30;;;1.10;;
1765;SDS011;880;52.452;8.656;2022-07-06T12:01:57;2.17;;;0.80;;
1765;SDS011;880;52.452;8.656;2022-07-06T12:04:46;1.93;;;0.90;;
1765;SDS011;880;52.452;8.656;2022-07-06T12:07:14;1.43;;;0.60;;
1765;SDS011;880;52.452;8.656;2022-07-06T12:09:44;2.50;;;0.70;;
1765;SDS011;880;52.452;8.656;2022-07-06T12:12:12;2.13;;;0.70;;
1765;SDS011;880;52.452;8.656;2022-07-06T12:14:40;2.67;;;0.60;;
1765;SDS011;880;52.452;8.656;2022-07-06T12:17:09;0.93;;;0.70;;
1765;SDS011;880;52.452;8.656;2022-07-06T12:19:38;6.73;;;1.53;;
1765;SDS011;880;52.452;8.656;2022-07-06T12:22:06;1.00;;;0.80;;
1765;SDS011;880;52.452;8.656;2022-07-06T12:24:34;2.20;;;0.70;;
1765;SDS011;880;52.452;8.656;2022-07-06T12:27:10;2.93;;;0.90;;
1765;SDS011;880;52.452;8.656;2022-07-06T12:29:38;1.20;;;0.80;;
1765;SDS011;880;52.452;8.656;2022-07-06T12:32:05;1.70;;;0.70;;
1765;SDS011;880;52.452;8.656;2022-07-06T12:34:33;1.43;;;0.77;;
1765;SDS011;880;52.452;8.656;2022-07-06T12:37:17;1.10;;;0.90;;
1765;SDS011;880;52.452;8.656;2022-07-06T12:39:45;3.30;;;1.07;;
1765;SDS011;880;52.452;8.656;2022-07-06T12:42:14;0.87;;;0.70;;
1765;SDS011;880;52.452;8.656;2022-07-06T12:44:51;0.60;;;0.60;;
1765;SDS011;880;52.452;8.656;2022-07-06T12:47:23;3.53;;;0.80;;
1765;SDS011;880;52.452;8.656;2022-07-06T12:50:07;2.73;;;1.00;;
1765;SDS011;880;52.452;8.656;2022-07-06T12:52:37;4.10;;;1.20;;
1765;SDS011;880;52.452;8.656;2022-07-06T12:55:05;1.43;;;0.63;;
1765;SDS011;880;52.452;8.656;2022-07-06T12:57:47;2.03;;;0.67;;
1765;SDS011;880;52.452;8.656;2022-07-06T13:00:16;0.60;;;0.50;;
1765;SDS011;880;52.452;8.656;2022-07-06T13:02:44;0.73;;;0.60;;
1765;SDS011;880;52.452;8.656;2022-07-06T13:05:34;1.00;;;0.50;;
1765;SDS011;880;52.452;8.656;2022-07-06T13:08:03;0.60;;;0.50;;
1765;SDS011;880;52.452;8.656;2022-07-06T13:10:30;0.87;;;0.50;;
1765;SDS011;880;52.452;8.656;2022-07-06T13:12:57;1.00;;;0.63;;
1765;SDS011;880;52.452;8.656;2022-07-06T13:15:25;1.80;;;0.67;;
1765;SDS011;880;52.452;8.656;2022-07-06T13:17:52;0.87;;;0.50;;
1765;SDS011;880;52.452;8.656;2022-07-06T13:20:19;0.60;;;0.50;;
1765;SDS011;880;52.452;8.656;2022-07-06T13:22:46;0.77;;;0.60;;
1765;SDS011;880;52.452;8.656;2022-07-06T13:25:13;1.27;;;0.60;;
1765;SDS011;880;52.452;8.656;2022-07-06T13:27:40;1.03;;;0.60;;
1765;SDS011;880;52.452;8.656;2022-07-06T13:30:08;1.83;;;0.90;;
1765;SDS011;880;52.452;8.656;2022-07-06T13:32:36;3.60;;;0.70;;
1765;SDS011;880;52.452;8.656;2022-07-06T13:35:05;2.50;;;0.73;;
1765;SDS011;880;52.452;8.656;2022-07-06T13:37:33;5.47;;;0.70;;
1765;SDS011;880;52.452;8.656;2022-07-06T13:40:00;1.23;;;0.57;;
1765;SDS011;880;52.452;8.656;2022-07-06T13:42:27;1.60;;;0.70;;
1765;SDS011;880;52.452;8.656;2022-07-06T13:44:54;0.90;;;0.67;;
1765;SDS011;880;52.452;8.656;2022-07-06T13:47:21;1.47;;;0.50;;
1765;SDS011;880;52.452;8.656;2022-07-06T13:49:48;5.03;;;1.00;;
1765;SDS011;880;52.452;8.656;2022-07-06T13:52:16;3.40;;;0.60;;
1765;SDS011;880;52.452;8.656;2022-07-06T13:54:43;1.37;;;0.80;;
1765;SDS011;880;52.452;8.656;2022-07-06T13:57:10;2.07;;;0.70;;
1765;SDS011;880;52.452;8.656;2022-07-06T13:59:37;0.73;;;0.60;;
1765;SDS011;880;52.452;8.656;2022-07-06T14:02:04;1.80;;;1.07;;
1765;SDS011;880;52.452;8.656;2022-07-06T14:04:32;1.37;;;0.60;;
1765;SDS011;880;52.452;8.656;2022-07-06T14:06:59;1.73;;;0.80;;
1765;SDS011;880;52.452;8.656;2022-07-06T14:09:27;1.33;;;0.60;;
1765;SDS011;880;52.452;8.656;2022-07-06T14:11:54;3.03;;;1.00;;
1765;SDS011;880;52.452;8.656;2022-07-06T14:14:21;1.20;;;0.60;;
1765;SDS011;880;52.452;8.656;2022-07-06T14:16:48;1.53;;;0.80;;
1765;SDS011;880;52.452;8.656;2022-07-06T14:19:15;2.73;;;0.80;;
1765;SDS011;880;52.452;8.656;2022-07-06T14:21:46;2.70;;;0.80;;
1765;SDS011;880;52.452;8.656;2022-07-06T14:24:14;1.23;;;0.63;;
1765;SDS011;880;52.452;8.656;2022-07-06T14:26:41;1.43;;;0.80;;
1765;SDS011;880;52.452;8.656;2022-07-06T14:29:08;0.80;;;0.80;;
1765;SDS011;880;52.452;8.656;2022-07-06T14:31:35;2.40;;;0.80;;
1765;SDS011;880;52.452;8.656;2022-07-06T14:34:02;1.40;;;0.67;;
1765;SDS011;880;52.452;8.656;2022-07-06T14:36:29;1.10;;;0.70;;
1765;SDS011;880;52.452;8.656;2022-07-06T14:38:56;1.87;;;0.60;;
1765;SDS011;880;52.452;8.656;2022-07-06T14:41:23;5.83;;;0.90;;
1765;SDS011;880;52.452;8.656;2022-07-06T14:43:50;2.73;;;0.83;;
1765;SDS011;880;52.452;8.656;2022-07-06T14:46:17;1.07;;;0.73;;
1765;SDS011;880;52.452;8.656;2022-07-06T14:48:44;1.77;;;0.60;;
1765;SDS011;880;52.452;8.656;2022-07-06T14:51:11;2.43;;;0.70;;
1765;SDS011;880;52.452;8.656;2022-07-06T14:53:38;0.83;;;0.70;;
1765;SDS011;880;52.452;8.656;2022-07-06T14:56:05;2.33;;;0.77;;
1765;SDS011;880;52.452;8.656;2022-07-06T14:58:32;1.23;;;0.50;;
1765;SDS011;880;52.452;8.656;2022-07-06T15:00:59;2.10;;;0.90;;
1765;SDS011;880;52.452;8.656;2022-07-06T15:03:27;1.00;;;0.60;;
1765;SDS011;880;52.452;8.656;2022-07-06T15:05:56;0.80;;;0.63;;
1765;SDS011;880;52.452;8.656;2022-07-06T15:08:23;1.33;;;0.70;;
1765;SDS011;880;52.452;8.656;2022-07-06T15:10:51;0.80;;;0.60;;
1765;SDS011;880;52.452;8.656;2022-07-06T15:13:18;3.10;;;0.70;;
1765;SDS011;880;52.452;8.656;2022-07-06T15:15:45;0.90;;;0.70;;
1765;SDS011;880;52.452;8.656;2022-07-06T15:18:23;1.30;;;0.50;;
1765;SDS011;880;52.452;8.656;2022-07-06T15:20:51;1.20;;;0.77;;
1765;SDS011;880;52.452;8.656;2022-07-06T15:23:18;2.43;;;0.67;;
1765;SDS011;880;52.452;8.656;2022-07-06T15:25:46;1.30;;;0.60;;
1765;SDS011;880;52.452;8.656;2022-07-06T15:28:21;3.07;;;0.73;;
1765;SDS011;880;52.452;8.656;2022-07-06T15:30:51;1.70;;;0.73;;
1765;SDS011;880;52.452;8.656;2022-07-06T15:33:18;2.90;;;0.70;;
1765;SDS011;880;52.452;8.656;2022-07-06T15:35:45;2.00;;;0.77;;
1765;SDS011;880;52.452;8.656;2022-07-06T15:38:13;2.03;;;0.70;;
1765;SDS011;880;52.452;8.656;2022-07-06T15:40:40;1.10;;;0.60;;
1765;SDS011;880;52.452;8.656;2022-07-06T15:43:11;1.80;;;0.93;;
1765;SDS011;880;52.452;8.656;2022-07-06T15:45:38;1.90;;;0.50;;
1765;SDS011;880;52.452;8.656;2022-07-06T15:48:05;3.70;;;1.07;;
1765;SDS011;880;52.452;8.656;2022-07-06T15:50:33;4.90;;;1.00;;
1765;SDS011;880;52.452;8.656;2022-07-06T15:53:02;3.00;;;0.60;;
1765;SDS011;880;52.452;8.656;2022-07-06T15:55:29;2.33;;;0.73;;
1765;SDS011;880;52.452;8.656;2022-07-06T15:57:56;1.43;;;0.53;;
1765;SDS011;880;52.452;8.656;2022-07-06T16:00:24;1.87;;;0.87;;